Time;durP1;ratioP1;P1;durP2;ratioP2;P2;SDS_P1;SDS_P2;PMS_P1;PMS_P2;Temp;Humidity;BMP_temperature;BMP_pressure;BME280_temperature;BME280_humidity;BME280_pressure;Samples;Min_cycle;Max_cycle;Signal;HPM_P1;HPM_P2
2023/05/22 00:02:23;;;;;;;2.17;1.60;;;;;;;13.86;50.41;101902.31;10637405;27;20386;-76
2023/05/22 00:07:26;;;;;;;2.00;1.50;;;;;;;13.79;50.52;101902.59;10659373;27;20039;-76
2023/05/22 00:12:28;;;;;;;4.32;1.77;;;;;;;13.67;50.53;101899.22;10637941;27;20047;-77
2023/05/22 00:17:30;;;;;;;3.72;1.73;;;;;;;13.56;50.90;101894.81;10644873;27;20042;-76
2023/05/22 00:22:36;;;;;;;2.92;1.30;;;;;;;13.48;51.08;101895.31;10634587;27;20050;-77
2023/05/22 00:27:38;;;;;;;2.20;1.50;;;;;;;13.50;50.90;101888.41;10617963;27;20039;-76
2023/05/22 00:32:40;;;;;;;2.40;1.20;;;;;;;13.36;51.54;101890.00;10634243;27;20050;-76
2023/05/22 00:37:44;;;;;;;3.55;1.52;;;;;;;13.23;51.65;101894.09;10653227;27;20035;-77
2023/05/22 00:42:49;;;;;;;1.73;1.20;;;;;;;13.08;52.40;101882.97;10646651;27;20425;-76
2023/05/22 00:47:52;;;;;;;1.20;1.10;;;;;;;13.00;52.65;101883.47;10635622;27;20035;-77
2023/05/22 00:52:54;;;;;;;1.90;1.17;;;;;;;12.90;52.52;101875.97;10633429;27;20058;-77
2023/05/22 00:57:56;;;;;;;3.67;1.90;;;;;;;12.73;53.68;101872.56;10646703;27;20036;-77
2023/05/22 01:02:59;;;;;;;3.15;1.80;;;;;;;12.59;54.47;101868.63;10643517;27;20046;-76
2023/05/22 01:08:02;;;;;;;3.55;1.70;;;;;;;12.43;54.98;101853.06;10629481;27;20425;-77
2023/05/22 01:13:22;;;;;;;1.90;1.02;;;;;;;12.26;56.20;101862.31;10653386;27;20039;-76
2023/05/22 01:18:36;;;;;;;2.67;1.40;;;;;;;12.15;56.18;101854.22;10628741;27;20084;-74
2023/05/22 01:23:59;;;;;;;1.58;1.30;;;;;;;12.13;56.75;101854.47;10636665;27;20042;-75
2023/05/22 01:29:20;;;;;;;2.58;1.50;;;;;;;12.29;56.46;101867.28;10635637;27;20050;-77
2023/05/22 01:34:23;;;;;;;2.85;1.48;;;;;;;12.34;55.85;101867.34;10632389;27;20050;-75
2023/05/22 01:39:26;;;;;;;3.40;1.67;;;;;;;12.18;56.85;101879.31;10635713;27;20305;-75
2023/05/22 01:44:28;;;;;;;4.97;1.75;;;;;;;12.03;56.91;101870.91;10652432;27;20061;-75
2023/05/22 01:49:32;;;;;;;1.52;1.00;;;;;;;12.07;57.15;101864.63;10623104;27;20038;-75
2023/05/22 01:54:38;;;;;;;3.00;1.70;;;;;;;11.94;57.09;101870.53;10594856;28;20047;-74
2023/05/22 01:59:40;;;;;;;3.03;1.60;;;;;;;11.84;58.16;101864.13;10625496;27;20050;-75
2023/05/22 02:04:45;;;;;;;2.97;1.50;;;;;;;11.75;58.40;101856.28;10636903;27;20047;-75
2023/05/22 02:09:50;;;;;;;;;;;;;;;11.72;58.28;101862.31;10604558;27;20092;-75
2023/05/22 02:14:52;;;;;;;2.97;1.40;;;;;;;11.64;59.23;101859.22;10615314;27;19919;-75
2023/05/22 02:19:56;;;;;;;2.47;1.70;;;;;;;11.72;58.92;101856.81;10603932;27;20497;-75
2023/05/22 02:24:58;;;;;;;1.83;1.30;;;;;;;11.70;58.89;101852.66;10606824;27;20062;-75
2023/05/22 02:30:00;;;;;;;3.08;1.40;;;;;;;11.80;59.15;101852.78;10611250;27;20878;-75
2023/05/22 02:35:03;;;;;;;3.90;1.45;;;;;;;11.86;58.26;101845.44;10620043;27;20138;-75
2023/05/22 02:40:06;;;;;;;1.60;1.00;;;;;;;11.99;58.47;101836.78;10607088;27;20058;-75
2023/05/22 02:45:09;;;;;;;3.28;1.30;;;;;;;12.22;57.35;101832.81;10588098;27;20524;-77
2023/05/22 02:50:11;;;;;;;4.50;1.67;;;;;;;12.36;57.61;101823.84;10617306;27;20042;-77
2023/05/22 02:55:14;;;;;;;2.58;1.20;;;;;;;12.47;56.59;101823.91;10600290;27;20413;-77
2023/05/22 03:00:16;;;;;;;1.10;0.68;;;;;;;12.52;56.13;101844.06;10631512;27;20057;-75
2023/05/22 03:05:19;;;;;;;2.15;1.17;;;;;;;12.54;56.50;101835.53;10608290;27;20044;-74
2023/05/22 03:10:21;;;;;;;5.82;1.50;;;;;;;12.47;56.57;101849.53;10595497;27;20046;-75
2023/05/22 03:15:24;;;;;;;1.40;1.20;;;;;;;12.33;56.71;101857.41;10588255;27;20414;-75
2023/05/22 03:20:36;;;;;;;2.60;1.40;;;;;;;12.11;57.64;101858.59;10606692;27;20031;-76
2023/05/22 03:25:41;;;;;;;2.35;1.17;;;;;;;12.02;58.27;101861.81;10660402;27;20047;-76
2023/05/22 03:30:43;;;;;;;1.48;1.23;;;;;;;12.00;58.81;101861.25;10660350;27;20539;-76
2023/05/22 03:35:52;;;;;;;2.67;1.20;;;;;;;12.13;58.25;101857.22;10622163;27;20047;-76
2023/05/22 03:40:54;;;;;;;2.33;1.45;;;;;;;12.16;57.76;101853.97;10642329;27;20043;-76
2023/05/22 03:45:58;;;;;;;2.50;1.45;;;;;;;12.27;58.88;101850.19;10659102;27;20405;-75
2023/05/22 03:51:00;;;;;;;1.80;1.20;;;;;;;12.38;58.37;101848.38;10644663;27;20494;-75
2023/05/22 03:56:02;;;;;;;1.52;1.40;;;;;;;12.54;58.26;101858.41;10641398;27;20047;-76
2023/05/22 04:01:08;;;;;;;2.03;1.13;;;;;;;12.55;58.53;101871.06;10622992;27;20062;-76
2023/05/22 04:06:12;;;;;;;1.38;1.20;;;;;;;12.52;59.16;101863.34;10619208;27;20050;-76
2023/05/22 04:11:15;;;;;;;2.22;1.70;;;;;;;12.50;60.12;101850.94;10639273;27;20038;-76
2023/05/22 04:16:17;;;;;;;1.52;1.08;;;;;;;12.39;63.80;101855.53;10632882;27;20043;-77
2023/05/22 04:21:19;;;;;;;2.63;1.58;;;;;;;12.02;65.96;101881.09;10641514;27;20039;-77
2023/05/22 04:26:22;;;;;;;5.40;1.60;;;;;;;11.66;72.50;101873.53;10604009;27;20170;-77
2023/05/22 04:31:25;;;;;;;2.45;1.45;;;;;;;11.23;73.82;101857.88;10607539;27;20050;-77
2023/05/22 04:36:27;;;;;;;3.33;1.20;;;;;;;11.02;76.75;101841.16;10603261;27;20046;-77
2023/05/22 04:41:31;;;;;;;2.25;1.75;;;;;;;10.92;77.21;101835.50;10632990;27;20062;-76
2023/05/22 04:46:34;;;;;;;5.90;1.63;;;;;;;11.11;77.54;101814.91;10640393;27;20114;-77
2023/05/22 04:51:36;;;;;;;2.05;1.58;;;;;;;11.44;77.87;101810.31;10583234;27;20039;-77
2023/05/22 04:56:39;;;;;;;5.57;1.65;;;;;;;11.71;77.26;101827.66;10638098;27;20051;-77
2023/05/22 05:01:45;;;;;;;4.00;1.90;;;;;;;11.84;76.60;101809.13;10626472;27;20031;-77
2023/05/22 05:06:51;;;;;;;3.75;2.08;;;;;;;12.01;77.44;101807.91;10616591;27;20490;-77
2023/05/22 05:11:54;;;;;;;6.03;2.40;;;;;;;12.16;79.19;101798.94;10632725;27;20054;-77
2023/05/22 05:16:57;;;;;;;4.50;2.08;;;;;;;12.36;79.50;101793.59;10609471;27;20156;-77
2023/05/22 05:22:00;;;;;;;4.50;2.22;;;;;;;13.12;78.41;101786.81;10656586;27;20058;-77
2023/05/22 05:27:02;;;;;;;5.63;2.67;;;;;;;13.72;77.36;101779.81;10609431;27;20047;-76
2023/05/22 05:32:05;;;;;;;5.00;2.28;;;;;;;13.73;74.97;101775.97;10620743;27;20047;-76
2023/05/22 05:37:23;;;;;;;7.10;2.70;;;;;;;14.94;72.90;101782.44;10629183;27;20031;-76
2023/05/22 05:42:25;;;;;;;6.57;3.00;;;;;;;15.04;71.01;101769.38;10654761;27;20035;-76
2023/05/22 05:47:31;;;;;;;4.03;2.47;;;;;;;14.66;72.36;101759.84;10624370;27;20035;-76
2023/05/22 05:52:33;;;;;;;4.65;3.17;;;;;;;14.31;72.93;101766.25;10641411;27;20039;-76
2023/05/22 05:57:40;;;;;;;5.38;2.53;;;;;;;14.11;74.47;101772.66;10634736;27;20042;-76
2023/05/22 06:02:46;;;;;;;5.50;2.70;;;;;;;14.01;75.00;101772.63;10637794;27;20030;-76
2023/05/22 06:08:12;;;;;;;3.83;2.55;;;;;;;14.01;75.64;101766.28;10615020;27;20031;-76
2023/05/22 06:13:15;;;;;;;4.88;2.85;;;;;;;14.14;75.60;101766.56;10649543;27;20041;-75
2023/05/22 06:18:17;;;;;;;5.53;3.08;;;;;;;14.59;74.70;101759.34;10623633;27;20043;-76
2023/05/22 06:23:20;;;;;;;5.40;3.20;;;;;;;14.81;73.78;101766.44;10646694;27;20057;-76
2023/05/22 06:28:22;;;;;;;4.97;3.10;;;;;;;15.14;72.16;101756.63;10631320;27;20046;-76
2023/05/22 06:33:24;;;;;;;8.07;4.60;;;;;;;15.69;70.40;101758.25;10630132;27;20043;-77
2023/05/22 06:38:27;;;;;;;9.27;4.53;;;;;;;15.74;68.12;101755.41;10622436;27;20039;-75
2023/05/22 06:43:30;;;;;;;9.63;4.35;;;;;;;16.07;67.65;101755.72;10629117;27;20490;-75
2023/05/22 06:48:53;;;;;;;6.65;3.85;;;;;;;16.54;66.31;101754.97;10604933;27;20527;-77
2023/05/22 06:54:11;;;;;;;5.33;3.50;;;;;;;17.08;64.19;101751.81;10643274;27;20043;-75
2023/05/22 06:59:13;;;;;;;7.97;3.28;;;;;;;17.14;63.92;101744.25;10593701;28;20035;-76
2023/05/22 07:04:34;;;;;;;5.53;3.20;;;;;;;16.71;63.97;101744.25;10633237;27;20032;-75
2023/05/22 07:09:41;;;;;;;4.95;3.40;;;;;;;16.80;64.36;101749.97;10636063;27;20050;-75
2023/05/22 07:14:44;;;;;;;7.55;3.08;;;;;;;16.50;64.71;101740.06;10615278;27;20035;-74
2023/05/22 07:19:47;;;;;;;7.10;3.00;;;;;;;16.33;65.73;101732.19;10634155;27;20047;-74
2023/05/22 07:24:49;;;;;;;4.32;2.45;;;;;;;16.13;66.62;101729.59;10646436;27;20042;-74
2023/05/22 07:29:53;;;;;;;7.15;3.22;;;;;;;16.28;67.31;101726.69;10657969;27;20046;-75
2023/05/22 07:34:56;;;;;;;5.97;3.05;;;;;;;16.71;66.92;101732.34;10633996;28;20038;-75
2023/05/22 07:39:59;;;;;;;6.18;3.22;;;;;;;17.13;65.60;101717.66;10634758;28;20039;-75
2023/05/22 07:45:01;;;;;;;6.28;3.17;;;;;;;17.41;64.69;101710.31;10616077;28;20562;-75
2023/05/22 07:50:05;;;;;;;5.55;3.05;;;;;;;17.57;64.55;101714.50;10617805;28;20035;-74
2023/05/22 07:55:10;;;;;;;4.75;2.95;;;;;;;18.47;62.63;101713.19;10635680;28;20055;-75
2023/05/22 08:00:15;;;;;;;3.75;2.53;;;;;;;19.17;60.32;101700.88;10635235;28;20046;-76
2023/05/22 08:05:18;;;;;;;3.17;2.50;;;;;;;19.97;56.99;101699.22;10634684;27;20050;-73
2023/05/22 08:10:21;;;;;;;4.22;2.47;;;;;;;19.83;56.16;101700.13;10613389;27;20501;-76
2023/05/22 08:15:23;;;;;;;2.92;2.42;;;;;;;20.46;55.10;101698.97;10660563;27;20050;-74
2023/05/22 08:20:25;;;;;;;4.57;2.90;;;;;;;21.88;51.85;101688.16;10645378;27;20679;-74
2023/05/22 08:25:27;;;;;;;3.67;2.65;;;;;;;23.23;49.18;101681.72;10583791;27;20523;-75
2023/05/22 08:30:30;;;;;;;2.53;2.30;;;;;;;23.33;47.29;101680.50;10641170;27;20043;-74
2023/05/22 08:35:32;;;;;;;5.35;2.88;;;;;;;23.81;47.80;101684.72;10641826;27;20412;-74
2023/05/22 08:40:39;;;;;;;3.97;2.75;;;;;;;24.05;46.16;101670.75;10651931;27;20027;-74
2023/05/22 08:45:42;;;;;;;4.57;3.08;;;;;;;24.43;44.25;101683.69;10664207;27;20055;-75
2023/05/22 08:50:46;;;;;;;5.13;3.22;;;;;;;24.25;44.12;101671.81;10659162;27;20038;-76
2023/05/22 08:55:51;;;;;;;4.28;3.33;;;;;;;24.39;43.72;101682.75;10599969;27;20047;-76
2023/05/22 09:00:54;;;;;;;5.28;3.35;;;;;;;24.00;42.66;101699.84;10597662;27;20039;-77
2023/05/22 09:05:57;;;;;;;1.88;1.63;;;;;;;22.71;45.46;101670.88;10639513;27;20050;-77
2023/05/22 09:10:59;;;;;;;3.95;3.53;;;;;;;23.26;45.46;101678.28;10634714;27;20050;-76
2023/05/22 09:16:09;;;;;;;4.22;3.50;;;;;;;23.46;45.03;101663.44;10599157;28;20052;-76
2023/05/22 09:21:13;;;;;;;5.57;2.90;;;;;;;23.13;45.88;101654.16;10620365;27;20039;-76
2023/05/22 09:26:15;;;;;;;3.13;2.05;;;;;;;22.97;45.00;101670.75;10658600;27;20049;-77
2023/05/22 09:31:17;;;;;;;5.18;2.67;;;;;;;21.56;48.63;101671.94;10637825;27;20047;-76
2023/05/22 09:36:20;;;;;;;5.28;2.53;;;;;;;20.85;49.39;101655.47;10608431;27;20058;-76
2023/05/22 09:41:22;;;;;;;5.88;3.30;;;;;;;20.25;50.71;101650.50;10601531;27;20042;-76
2023/05/22 09:46:25;;;;;;;3.85;2.58;;;;;;;20.05;53.23;101643.53;10622507;27;20047;-77
2023/05/22 09:51:27;;;;;;;3.42;2.97;;;;;;;20.01;53.00;101647.28;10637173;27;20039;-75
2023/05/22 09:56:31;;;;;;;4.07;3.10;;;;;;;20.01;54.21;101636.97;10630897;27;20400;-77
2023/05/22 10:01:34;;;;;;;5.30;2.75;;;;;;;19.80;50.22;101627.53;10643271;27;20042;-75
2023/05/22 10:06:37;;;;;;;4.13;3.63;;;;;;;19.53;54.99;101632.06;10599232;27;20089;-77
2023/05/22 10:11:40;;;;;;;2.50;2.10;;;;;;;19.29;55.45;101614.88;10615701;27;20035;-76
2023/05/22 10:16:43;;;;;;;4.43;3.13;;;;;;;19.15;56.93;101625.25;10622572;27;20042;-79
2023/05/22 10:21:46;;;;;;;5.03;3.33;;;;;;;19.09;56.83;101604.22;10611641;27;20035;-77
2023/05/22 10:26:49;;;;;;;5.63;3.70;;;;;;;19.15;55.05;101600.22;10632211;27;20499;-76
2023/05/22 10:32:07;;;;;;;5.15;3.40;;;;;;;19.26;54.41;101596.00;10613761;27;20053;-76
2023/05/22 10:37:27;;;;;;;4.63;3.00;;;;;;;19.39;53.84;101585.97;10618263;27;20044;-77
2023/05/22 10:42:32;;;;;;;3.40;2.58;;;;;;;19.51;52.93;101578.69;10654354;27;20401;-77
2023/05/22 10:47:34;;;;;;;4.18;2.92;;;;;;;19.69;51.99;101578.81;10637903;27;20069;-76
2023/05/22 10:52:38;;;;;;;3.47;2.60;;;;;;;19.82;51.65;101550.84;10628237;27;20040;-76
2023/05/22 10:57:40;;;;;;;4.47;3.38;;;;;;;19.66;50.86;101540.47;10592830;28;20048;-76
2023/05/22 11:02:43;;;;;;;5.32;3.08;;;;;;;19.58;48.95;101542.88;10611775;27;20520;-76
2023/05/22 11:07:48;;;;;;;7.25;2.67;;;;;;;19.67;46.79;101531.78;10600965;27;20044;-74
2023/05/22 11:13:02;;;;;;;3.85;2.92;;;;;;;19.83;50.12;101532.19;10646100;27;20412;-76
2023/05/22 11:18:05;;;;;;;7.93;3.67;;;;;;;19.73;51.09;101536.06;10610136;28;20108;-77
2023/05/22 11:23:09;;;;;;;4.20;2.95;;;;;;;19.56;51.46;101517.31;10596090;28;20043;-77
2023/05/22 11:28:11;;;;;;;5.03;2.83;;;;;;;19.52;51.10;101512.69;10627959;28;20051;-77
2023/05/22 11:33:14;;;;;;;3.05;2.53;;;;;;;19.51;49.88;101523.00;10637822;28;20429;-77
2023/05/22 11:38:16;;;;;;;4.00;2.90;;;;;;;19.53;50.90;101505.97;10632399;28;20044;-77
2023/05/22 11:43:29;;;;;;;3.00;2.30;;;;;;;19.28;50.61;101493.59;10636381;27;20050;-77
2023/05/22 11:48:31;;;;;;;1.75;1.23;;;;;;;19.04;51.13;101501.44;10657497;27;20047;-75
2023/05/22 11:53:34;;;;;;;6.32;2.70;;;;;;;18.74;52.06;101489.91;10653650;27;20451;-77
2023/05/22 11:58:36;;;;;;;2.63;1.98;;;;;;;18.83;50.60;101490.00;10631230;27;20054;-76
2023/05/22 12:03:38;;;;;;;2.88;2.30;;;;;;;19.06;50.82;101493.59;10650734;27;20032;-74
2023/05/22 12:08:41;;;;;;;3.10;1.88;;;;;;;19.27;50.73;101483.59;10637449;27;20063;-74
2023/05/22 12:13:44;;;;;;;4.63;2.97;;;;;;;19.30;49.06;101479.34;10656043;27;20406;-73
2023/05/22 12:18:46;;;;;;;2.70;2.50;;;;;;;19.40;48.75;101487.41;10606620;27;20044;-74
2023/05/22 12:23:53;;;;;;;4.75;2.90;;;;;;;19.39;49.08;101483.78;10645286;27;20409;-76
2023/05/22 12:28:59;;;;;;;4.70;2.27;;;;;;;19.23;49.06;101486.16;10653021;27;20046;-76
2023/05/22 12:34:07;;;;;;;4.18;2.15;;;;;;;19.01;49.63;101486.19;10627767;27;20481;-74
2023/05/22 12:39:11;;;;;;;2.92;2.67;;;;;;;18.84;50.00;101481.34;10670419;27;20066;-73
2023/05/22 12:44:14;;;;;;;2.78;2.55;;;;;;;18.80;50.42;101497.03;10658978;27;20050;-72
2023/05/22 12:49:16;;;;;;;4.57;2.65;;;;;;;18.64;51.28;101496.56;10672645;27;20545;-73
2023/05/22 12:54:18;;;;;;;5.32;2.35;;;;;;;18.55;49.88;101505.94;10658006;27;20039;-73
2023/05/22 12:59:21;;;;;;;3.05;2.53;;;;;;;18.42;49.72;101495.69;10608203;27;20489;-73
2023/05/22 13:04:23;;;;;;;3.38;2.97;;;;;;;18.38;49.54;101498.25;10655858;27;20042;-74
2023/05/22 13:09:25;;;;;;;1.60;1.27;;;;;;;18.34;49.20;101494.47;10656777;27;20039;-74
2023/05/22 13:14:27;;;;;;;3.80;2.50;;;;;;;18.29;49.14;101489.84;10636480;27;20031;-74
2023/05/22 13:19:30;;;;;;;2.70;2.33;;;;;;;18.25;50.04;101491.63;10658796;27;20046;-74
2023/05/22 13:24:33;;;;;;;2.97;2.25;;;;;;;18.01;51.50;101519.63;10650973;27;20035;-73
2023/05/22 13:29:35;;;;;;;4.70;2.40;;;;;;;17.30;54.67;101570.09;10654001;27;20046;-74
2023/05/22 13:34:41;;;;;;;1.48;1.30;;;;;;;16.29;59.94;101589.84;10635926;27;20039;-73
2023/05/22 13:39:43;;;;;;;2.22;2.00;;;;;;;14.27;72.75;101599.53;10636260;27;20047;-73
2023/05/22 13:44:46;;;;;;;3.38;2.95;;;;;;;12.89;81.55;101664.97;10650974;27;20035;-73
2023/05/22 13:49:48;;;;;;;4.40;2.25;;;;;;;12.20;85.31;101651.47;10653307;27;20046;-73
2023/05/22 13:54:50;;;;;;;5.63;2.53;;;;;;;11.78;86.88;101640.44;10628865;27;20035;-74
2023/05/22 13:59:53;;;;;;;3.17;2.30;;;;;;;11.61;89.65;101645.28;10649434;27;20677;-74
2023/05/22 14:04:55;;;;;;;4.93;2.58;;;;;;;11.50;91.71;101616.91;10650203;27;20031;-75
2023/05/22 14:09:57;;;;;;;5.07;2.60;;;;;;;11.76;92.20;101569.22;10650429;27;20046;-75
2023/05/22 14:14:59;;;;;;;4.80;2.90;;;;;;;12.10;92.02;101526.78;10651443;27;20155;-75
2023/05/22 14:20:02;;;;;;;4.03;2.83;;;;;;;12.38;92.22;101513.38;10634524;27;20065;-74
2023/05/22 14:25:06;;;;;;;6.15;4.00;;;;;;;12.66;92.19;101536.00;10650699;27;20031;-73
2023/05/22 14:30:12;;;;;;;4.05;3.20;;;;;;;12.63;90.79;101526.34;10656014;27;21057;-75
2023/05/22 14:35:15;;;;;;;3.95;2.83;;;;;;;12.81;90.46;101526.94;10647962;27;20051;-75
2023/05/22 14:40:18;;;;;;;4.82;2.60;;;;;;;12.92;88.80;101526.66;10648385;27;20446;-75
2023/05/22 14:45:21;;;;;;;3.90;2.70;;;;;;;13.06;88.08;101529.69;10651667;28;20039;-74
2023/05/22 14:50:23;;;;;;;7.78;3.17;;;;;;;13.31;87.69;101531.63;10637669;28;20043;-74
2023/05/22 14:55:26;;;;;;;5.70;3.05;;;;;;;13.29;87.11;101528.34;10634760;27;20035;-74
2023/05/22 15:00:29;;;;;;;5.10;3.10;;;;;;;13.40;86.72;101513.44;10620366;28;20046;-74
2023/05/22 15:05:31;;;;;;;5.20;3.20;;;;;;;13.53;85.93;101506.50;10626523;28;20122;-76
2023/05/22 15:10:34;;;;;;;4.30;2.58;;;;;;;13.60;86.41;101500.69;10638179;27;20037;-76
2023/05/22 15:15:36;;;;;;;4.20;3.58;;;;;;;13.51;85.08;101506.78;10657561;27;20517;-75
2023/05/22 15:20:39;;;;;;;2.65;2.38;;;;;;;13.43;82.87;101499.09;10632357;28;20043;-75
2023/05/22 15:25:42;;;;;;;3.38;2.78;;;;;;;13.25;85.97;101502.44;10632648;28;20045;-75
2023/05/22 15:30:45;;;;;;;3.57;2.67;;;;;;;13.09;87.46;101492.50;10578465;28;1526945;-76
2023/05/22 15:35:47;;;;;;;3.20;2.42;;;;;;;12.90;89.26;101482.03;10653574;27;20046;-76
2023/05/22 15:40:50;;;;;;;4.65;2.80;;;;;;;13.02;87.37;101478.19;10683997;27;20034;-76
2023/05/22 15:45:52;;;;;;;4.30;2.20;;;;;;;13.20;85.20;101463.88;10647302;28;20046;-76
2023/05/22 15:50:54;;;;;;;3.20;2.58;;;;;;;13.37;86.75;101452.53;10612526;28;20066;-77
2023/05/22 15:55:57;;;;;;;3.50;2.90;;;;;;;13.44;88.12;101451.13;10629815;28;20047;-74
2023/05/22 16:00:59;;;;;;;5.88;3.40;;;;;;;13.50;86.97;101455.50;10650586;27;20039;-74
2023/05/22 16:06:01;;;;;;;3.17;2.78;;;;;;;13.75;83.94;101451.00;10647671;27;20751;-74
2023/05/22 16:11:03;;;;;;;3.35;2.70;;;;;;;13.69;85.71;101446.59;10654355;27;20034;-75
2023/05/22 16:16:06;;;;;;;4.88;2.97;;;;;;;13.67;83.91;101457.09;10665359;27;20049;-74
2023/05/22 16:21:08;;;;;;;3.90;3.00;;;;;;;13.65;85.67;101448.28;10646544;27;20039;-74
2023/05/22 16:26:10;;;;;;;4.35;3.00;;;;;;;13.60;83.43;101445.56;10630359;27;20043;-76
2023/05/22 16:31:15;;;;;;;3.88;2.40;;;;;;;13.61;81.54;101438.94;10613324;27;20039;-75
2023/05/22 16:36:18;;;;;;;4.47;2.60;;;;;;;13.96;79.03;101438.75;10624434;27;20039;-77
2023/05/22 16:41:21;;;;;;;3.10;2.15;;;;;;;13.65;81.96;101442.75;10636455;27;20035;-84
2023/05/22 16:46:23;;;;;;;2.78;2.35;;;;;;;13.46;79.97;101440.63;10604293;27;20054;-85
2023/05/22 16:51:25;;;;;;;2.65;2.35;;;;;;;13.27;82.27;101437.66;10640553;27;20047;-81
2023/05/22 16:56:31;;;;;;;3.67;2.60;;;;;;;13.41;81.24;101437.91;10646641;27;20031;-87
2023/05/22 17:01:33;;;;;;;2.75;2.45;;;;;;;13.82;78.61;101449.56;10585966;27;20405;-88
2023/05/22 17:06:35;;;;;;;4.53;3.38;;;;;;;13.77;78.78;101446.03;10619360;27;20043;-88
2023/05/22 17:11:38;;;;;;;4.00;3.03;;;;;;;13.70;79.36;101439.97;10611163;27;20076;-85
2023/05/22 17:16:40;;;;;;;3.00;2.70;;;;;;;13.97;79.12;101434.88;10616183;27;20039;-81
2023/05/22 17:21:43;;;;;;;3.25;2.95;;;;;;;14.01;80.74;101447.00;10647687;27;20034;-81
2023/05/22 17:26:47;;;;;;;4.68;3.47;;;;;;;13.87;81.53;101445.97;10606176;27;20042;-89
2023/05/22 17:31:49;;;;;;;5.80;3.67;;;;;;;13.79;83.75;101450.16;10614085;27;20040;-82
2023/05/22 17:36:52;;;;;;;6.05;4.65;;;;;;;13.65;85.50;101454.63;10561955;27;20409;-78
2023/05/22 17:41:55;;;;;;;4.75;3.72;;;;;;;13.73;86.19;101455.97;10565613;27;20035;-87
2023/05/22 17:46:57;;;;;;;5.93;4.43;;;;;;;13.58;88.56;101460.44;10615515;27;20077;-83
2023/05/22 17:51:59;;;;;;;7.30;4.75;;;;;;;13.46;89.56;101453.59;10615726;27;20032;-77
2023/05/22 17:57:04;;;;;;;6.95;4.28;;;;;;;13.62;88.73;101462.63;10572336;28;20047;-76
2023/05/22 18:02:07;;;;;;;6.30;4.00;;;;;;;13.51;89.42;101454.38;10560436;27;20036;-79
2023/05/22 18:07:09;;;;;;;5.32;4.80;;;;;;;13.50;88.88;101455.50;10565759;27;20514;-75
2023/05/22 18:12:12;;;;;;;8.55;4.65;;;;;;;13.54;87.07;101458.53;10596981;28;20036;-76
2023/05/22 18:17:19;;;;;;;6.35;4.40;;;;;;;13.58;86.29;101460.44;10608273;27;20143;-75
2023/05/22 18:22:21;;;;;;;7.80;4.57;;;;;;;13.89;85.39;101465.84;10574188;28;20405;-77
2023/05/22 18:27:23;;;;;;;7.47;4.78;;;;;;;13.84;86.24;101460.31;10579439;28;20573;-75
2023/05/22 18:32:25;;;;;;;5.57;4.30;;;;;;;13.71;86.67;101455.41;10578358;27;20063;-78
2023/05/22 18:37:28;;;;;;;6.70;4.95;;;;;;;13.62;87.85;101465.38;10614475;27;20042;-75
2023/05/22 18:42:30;;;;;;;6.40;4.57;;;;;;;13.61;86.79;101452.72;10636537;27;20044;-78
2023/05/22 18:47:32;;;;;;;3.55;2.92;;;;;;;13.49;85.66;101450.25;10638472;27;20068;-87
2023/05/22 18:52:35;;;;;;;6.40;4.63;;;;;;;13.31;84.40;101454.44;10604094;27;20042;-86
2023/05/22 18:57:37;;;;;;;5.68;4.28;;;;;;;13.09;85.38;101479.53;10622628;27;20493;-83
2023/05/22 19:02:39;;;;;;;6.63;3.38;;;;;;;12.91;85.35;101486.44;10626538;27;20035;-80
2023/05/22 19:07:41;;;;;;;4.55;2.85;;;;;;;13.03;82.81;101485.34;10616554;27;20039;-80
2023/05/22 19:12:43;;;;;;;3.53;1.80;;;;;;;12.65;82.13;101454.50;10623913;27;20516;-82
2023/05/22 19:17:46;;;;;;;2.38;1.80;;;;;;;12.53;81.13;101446.53;10598749;28;20067;-78
2023/05/22 19:22:49;;;;;;;2.50;1.70;;;;;;;12.61;81.54;101429.44;10626250;28;20050;-80
2023/05/22 19:27:54;;;;;;;3.88;1.63;;;;;;;12.44;80.56;101430.81;10638614;28;20049;-79
2023/05/22 19:32:56;;;;;;;3.53;2.10;;;;;;;12.51;80.74;101439.63;10614677;28;20433;-83
2023/05/22 19:37:58;;;;;;;2.47;1.80;;;;;;;12.11;82.61;101437.63;10630420;28;20035;-81
2023/05/22 19:43:01;;;;;;;5.22;2.15;;;;;;;11.90;83.32;101434.84;10647617;28;20051;-83
2023/05/22 19:48:04;;;;;;;2.53;1.98;;;;;;;11.92;85.02;101434.56;10621928;27;20043;-82
2023/05/22 19:53:06;;;;;;;2.78;2.45;;;;;;;12.05;84.81;101436.81;10635596;27;20043;-83
2023/05/22 19:58:13;;;;;;;3.55;2.47;;;;;;;11.96;85.80;101435.66;10653772;27;20035;-79
2023/05/22 20:03:16;;;;;;;2.85;2.50;;;;;;;11.92;87.63;101429.88;10641948;27;20036;-78
2023/05/22 20:08:20;;;;;;;4.45;2.95;;;;;;;11.83;88.81;101430.69;10631252;27;20055;-77
2023/05/22 20:13:22;;;;;;;5.55;3.17;;;;;;;11.71;90.45;101444.66;10638067;27;20413;-75
2023/05/22 20:18:24;;;;;;;6.35;3.95;;;;;;;11.78;90.47;101443.31;10638084;27;20043;-77
2023/05/22 20:23:27;;;;;;;4.10;3.33;;;;;;;11.63;92.07;101443.25;10636259;27;20031;-74
2023/05/22 20:28:29;;;;;;;5.25;3.42;;;;;;;11.50;92.92;101451.97;10647168;27;20054;-77
2023/05/22 20:33:31;;;;;;;4.70;3.38;;;;;;;11.56;93.25;101456.41;10627612;27;20057;-76
2023/05/22 20:38:34;;;;;;;5.28;3.60;;;;;;;11.48;93.45;101444.00;10602267;27;20032;-75
2023/05/22 20:43:36;;;;;;;6.25;4.05;;;;;;;11.50;94.39;101451.97;10594948;27;20054;-74
2023/05/22 20:48:45;;;;;;;7.60;4.28;;;;;;;11.42;94.53;101441.47;10614171;27;20039;-74
2023/05/22 20:53:48;;;;;;;6.43;3.78;;;;;;;11.27;94.56;101449.63;10595774;27;20039;-76
2023/05/22 20:58:57;;;;;;;5.18;3.78;;;;;;;11.14;94.70;101449.03;10567449;28;20506;-76
2023/05/22 21:03:59;;;;;;;4.35;3.17;;;;;;;11.21;94.39;101448.78;10590443;27;20040;-75
2023/05/22 21:09:02;;;;;;;7.00;4.03;;;;;;;11.15;94.92;101450.69;10564032;28;20044;-74
2023/05/22 21:14:05;;;;;;;6.38;3.65;;;;;;;11.20;94.76;101449.88;10582152;28;20054;-75
2023/05/22 21:19:07;;;;;;;6.50;4.22;;;;;;;11.23;94.12;101443.84;10548015;28;20044;-75
2023/05/22 21:24:09;;;;;;;4.20;2.70;;;;;;;11.22;93.87;101446.88;10550419;28;20243;-80
2023/05/22 21:29:12;;;;;;;3.08;2.75;;;;;;;11.11;93.88;101438.59;10549015;28;20048;-79
2023/05/22 21:34:14;;;;;;;4.70;2.85;;;;;;;11.16;92.52;101446.84;10557897;27;20051;-82
2023/05/22 21:39:43;;;;;;;4.97;3.00;;;;;;;11.11;91.47;101449.56;10594405;27;20035;-83
2023/05/22 21:44:47;;;;;;;4.25;3.03;;;;;;;11.08;91.25;101444.59;10627391;27;20141;-80
2023/05/22 21:49:49;;;;;;;4.10;3.10;;;;;;;11.02;91.14;101440.16;10635681;27;20043;-80
2023/05/22 21:54:52;;;;;;;3.70;2.85;;;;;;;11.02;91.47;101442.91;10601983;27;20758;-77
2023/05/22 21:59:54;;;;;;;7.75;3.20;;;;;;;11.10;90.92;101430.56;10654938;27;20051;-77
2023/05/22 22:04:57;;;;;;;5.32;3.30;;;;;;;11.11;90.37;101422.09;10635696;27;20043;-77
2023/05/22 22:09:59;;;;;;;4.47;3.20;;;;;;;11.08;90.49;101430.84;10636343;27;20043;-76
2023/05/22 22:15:01;;;;;;;5.57;3.88;;;;;;;11.05;89.62;101436.88;10655871;27;20413;-76
2023/05/22 22:20:04;;;;;;;7.45;3.78;;;;;;;11.17;89.61;101422.94;10654564;27;20035;-78
2023/05/22 22:25:07;;;;;;;4.80;3.47;;;;;;;11.17;89.29;101425.69;10613007;27;20468;-77
2023/05/22 22:30:09;;;;;;;5.18;3.55;;;;;;;11.16;88.29;101430.38;10617886;27;20039;-76
2023/05/22 22:35:11;;;;;;;5.18;3.65;;;;;;;11.04;88.70;101412.44;10605062;27;20047;-78
2023/05/22 22:40:13;;;;;;;7.25;3.97;;;;;;;11.03;89.09;101413.53;10639488;27;20050;-76
2023/05/22 22:45:16;;;;;;;8.05;4.07;;;;;;;10.98;89.18;101410.75;10635896;27;20046;-79
2023/05/22 22:50:18;;;;;;;5.13;3.55;;;;;;;11.04;89.27;101412.44;10619080;27;20065;-76
2023/05/22 22:55:20;;;;;;;6.78;4.22;;;;;;;11.01;88.72;101415.72;10641410;27;20040;-76
2023/05/22 23:00:23;;;;;;;5.95;3.92;;;;;;;10.96;88.67;101415.69;10613897;27;20036;-76
2023/05/22 23:05:25;;;;;;;5.50;3.78;;;;;;;10.83;88.68;101414.22;10635659;27;20417;-75
2023/05/22 23:10:27;;;;;;;6.30;4.05;;;;;;;10.78;89.27;101397.72;10649779;27;20054;-75
2023/05/22 23:15:29;;;;;;;5.82;4.18;;;;;;;10.70;89.49;101396.28;10649929;27;20038;-75